Terminal Aerodrome Forecast
Issued by NWS Shreveport, LA

Home | Current Version | Previous Version | Text Only | Print | Product List | Glossary On
Versions: 1 2 3 4 5 6 7 8 9 10 11 12 13 14 15 16 17 18 19
000
FTUS44 KSHV 300921 AAA
TAFELD
TAF AMD
KELD 300921Z 3009/3106 25005KT P6SM SCT020 BKN100
      TEMPO 3010/3013 -SHRA OVC015
     FM301300 VRB04KT P6SM BKN050
     FM301800 VRB04KT P6SM OVC050=

USA.gov is the U.S. government's official web portal to all federal, state and local government web resources and services.